Terminal Aerodrome Forecast
Issued by NWS

Home | Current Version | Previous Version | Text Only | Print | Product List | Glossary On
Versions: 1 2 3 4 5 6 7 8 9 10 11 12 13 14 15 16 17 18 19 20 21 22 23 24 25 26 27 28 29 30 31 32 33 34
000
FTUS46 KLOX 231721
TAFOXR
TAF
KOXR 231721Z 2318/2418 36003KT P6SM OVC010
     FM232000 26008KT P6SM BKN012
     FM240300 26008KT 6SM BR OVC008
     FM240800 VRB03KT 5SM BR OVC006=

USA.gov is the U.S. government's official web portal to all federal, state and local government web resources and services.